Main page
METAR-TAF:

METAR-TAF

Airports :

Waterville Robert LaFleur Airport

Waterville, Maine, United States

latitude: 44-32N, longitude: 069-41W, elevation: 331 ft

Current weather observation

The report was made 9 minutes ago, at 17:24 UTC
Wind 6 mph from variable directions
Temperature 36°F
Humidity 93%
Pressure 29.21 in. Hg
Visibility: 3 miles
Overcast at a height of 900 ft
mist

METAR: KWVL 271724Z AUTO VRB05KT 3SM BR OVC009 02/01 A2921 RMK AO2 P0006 PWINO FZRANO

Time: 12:33 (17:33 UTC)


TAF: missing

Weather observations and forecasts of more than 4000 airports (METAR and TAF reports).

The available stations are represented by yellow and red dots on the map.

Hover mouse over dot to see the name of the station.

Then click to see weather observations and forecasts.

To change the map : click on the green buttons with a black cross to zoom in, on the green button with a dash to zoom out, or on the green arrows for adjacent maps.


METAR-TAF: